sensor_id;sensor_type;location;lat;lon;timestamp;P1;durP1;ratioP1;P2;durP2;ratioP2
17197;SDS011;8715;51.010;6.812;2022-08-21T00:00:56;530.33;;;508.07;;
17197;SDS011;8715;51.010;6.812;2022-08-21T00:03:22;537.67;;;515.33;;
17197;SDS011;8715;51.010;6.812;2022-08-21T00:05:48;526.83;;;505.08;;
17197;SDS011;8715;51.010;6.812;2022-08-21T00:08:16;514.50;;;492.45;;
17197;SDS011;8715;51.010;6.812;2022-08-21T00:10:42;510.27;;;488.40;;
17197;SDS011;8715;51.010;6.812;2022-08-21T00:13:08;535.10;;;513.10;;
17197;SDS011;8715;51.010;6.812;2022-08-21T00:15:35;535.00;;;512.38;;
17197;SDS011;8715;51.010;6.812;2022-08-21T00:18:03;535.10;;;512.10;;
17197;SDS011;8715;51.010;6.812;2022-08-21T00:20:29;535.53;;;513.13;;
17197;SDS011;8715;51.010;6.812;2022-08-21T00:22:55;534.88;;;512.20;;
17197;SDS011;8715;51.010;6.812;2022-08-21T00:25:20;531.38;;;509.30;;
17197;SDS011;8715;51.010;6.812;2022-08-21T00:27:46;532.75;;;510.02;;
17197;SDS011;8715;51.010;6.812;2022-08-21T00:30:13;537.78;;;515.22;;
17197;SDS011;8715;51.010;6.812;2022-08-21T00:32:40;530.33;;;507.92;;
17197;SDS011;8715;51.010;6.812;2022-08-21T00:35:08;518.00;;;496.40;;
17197;SDS011;8715;51.010;6.812;2022-08-21T00:37:36;515.20;;;493.27;;
17197;SDS011;8715;51.010;6.812;2022-08-21T00:40:03;531.80;;;509.30;;
17197;SDS011;8715;51.010;6.812;2022-08-21T00:42:29;533.75;;;511.63;;
17197;SDS011;8715;51.010;6.812;2022-08-21T00:44:55;578.70;;;554.58;;
17197;SDS011;8715;51.010;6.812;2022-08-21T00:47:21;539.55;;;517.25;;
17197;SDS011;8715;51.010;6.812;2022-08-21T00:49:46;520.67;;;499.02;;
17197;SDS011;8715;51.010;6.812;2022-08-21T00:52:16;533.85;;;511.80;;
17197;SDS011;8715;51.010;6.812;2022-08-21T00:54:43;519.97;;;497.73;;
17197;SDS011;8715;51.010;6.812;2022-08-21T00:57:11;523.85;;;501.45;;
17197;SDS011;8715;51.010;6.812;2022-08-21T00:59:41;520.80;;;498.30;;
17197;SDS011;8715;51.010;6.812;2022-08-21T01:02:09;522.53;;;500.30;;
17197;SDS011;8715;51.010;6.812;2022-08-21T01:04:35;528.70;;;506.67;;
17197;SDS011;8715;51.010;6.812;2022-08-21T01:07:00;512.25;;;490.95;;
17197;SDS011;8715;51.010;6.812;2022-08-21T01:09:26;502.48;;;480.88;;
17197;SDS011;8715;51.010;6.812;2022-08-21T01:11:51;499.23;;;478.30;;
17197;SDS011;8715;51.010;6.812;2022-08-21T01:14:17;507.95;;;485.88;;
17197;SDS011;8715;51.010;6.812;2022-08-21T01:16:45;500.40;;;479.40;;
17197;SDS011;8715;51.010;6.812;2022-08-21T01:19:12;545.30;;;522.03;;
17197;SDS011;8715;51.010;6.812;2022-08-21T01:21:39;502.40;;;480.58;;
17197;SDS011;8715;51.010;6.812;2022-08-21T01:24:05;506.38;;;484.60;;
17197;SDS011;8715;51.010;6.812;2022-08-21T01:26:32;500.20;;;479.27;;
17197;SDS011;8715;51.010;6.812;2022-08-21T01:29:13;488.90;;;468.33;;
17197;SDS011;8715;51.010;6.812;2022-08-21T01:31:42;493.58;;;472.45;;
17197;SDS011;8715;51.010;6.812;2022-08-21T01:34:08;503.15;;;482.23;;
17197;SDS011;8715;51.010;6.812;2022-08-21T01:36:33;519.22;;;497.33;;
17197;SDS011;8715;51.010;6.812;2022-08-21T01:38:59;513.92;;;492.83;;
17197;SDS011;8715;51.010;6.812;2022-08-21T01:41:25;487.23;;;466.70;;
17197;SDS011;8715;51.010;6.812;2022-08-21T01:43:50;507.98;;;487.30;;
17197;SDS011;8715;51.010;6.812;2022-08-21T01:46:16;493.20;;;470.45;;
17197;SDS011;8715;51.010;6.812;2022-08-21T01:48:41;479.85;;;459.55;;
17197;SDS011;8715;51.010;6.812;2022-08-21T01:51:07;499.60;;;478.13;;
17197;SDS011;8715;51.010;6.812;2022-08-21T01:53:33;540.40;;;517.72;;
17197;SDS011;8715;51.010;6.812;2022-08-21T01:56:00;509.65;;;488.17;;
17197;SDS011;8715;51.010;6.812;2022-08-21T01:58:26;485.55;;;464.65;;
17197;SDS011;8715;51.010;6.812;2022-08-21T02:00:52;489.42;;;468.45;;
17197;SDS011;8715;51.010;6.812;2022-08-21T02:03:18;493.05;;;472.13;;
17197;SDS011;8715;51.010;6.812;2022-08-21T02:05:43;496.83;;;475.23;;
17197;SDS011;8715;51.010;6.812;2022-08-21T02:08:08;492.23;;;471.13;;
17197;SDS011;8715;51.010;6.812;2022-08-21T02:10:34;483.27;;;462.27;;
17197;SDS011;8715;51.010;6.812;2022-08-21T02:13:00;498.52;;;476.88;;
17197;SDS011;8715;51.010;6.812;2022-08-21T02:15:27;493.13;;;471.55;;
17197;SDS011;8715;51.010;6.812;2022-08-21T02:17:57;500.25;;;478.80;;
17197;SDS011;8715;51.010;6.812;2022-08-21T02:20:26;496.90;;;475.90;;
17197;SDS011;8715;51.010;6.812;2022-08-21T02:25:19;480.35;;;459.73;;
17197;SDS011;8715;51.010;6.812;2022-08-21T02:27:46;502.75;;;481.25;;
17197;SDS011;8715;51.010;6.812;2022-08-21T02:30:16;494.25;;;473.35;;
17197;SDS011;8715;51.010;6.812;2022-08-21T02:32:44;508.83;;;486.70;;
17197;SDS011;8715;51.010;6.812;2022-08-21T02:35:09;498.63;;;477.00;;
17197;SDS011;8715;51.010;6.812;2022-08-21T02:37:52;505.27;;;483.77;;
17197;SDS011;8715;51.010;6.812;2022-08-21T02:40:21;485.48;;;464.23;;
17197;SDS011;8715;51.010;6.812;2022-08-21T02:42:48;485.42;;;464.20;;
17197;SDS011;8715;51.010;6.812;2022-08-21T02:45:15;497.63;;;476.08;;
17197;SDS011;8715;51.010;6.812;2022-08-21T02:47:52;500.95;;;479.27;;
17197;SDS011;8715;51.010;6.812;2022-08-21T02:50:28;494.77;;;473.27;;
17197;SDS011;8715;51.010;6.812;2022-08-21T02:52:56;489.92;;;469.20;;
17197;SDS011;8715;51.010;6.812;2022-08-21T02:55:25;478.25;;;457.50;;
17197;SDS011;8715;51.010;6.812;2022-08-21T02:57:53;501.50;;;480.60;;
17197;SDS011;8715;51.010;6.812;2022-08-21T03:00:20;560.58;;;537.47;;
17197;SDS011;8715;51.010;6.812;2022-08-21T03:02:47;500.63;;;478.48;;
17197;SDS011;8715;51.010;6.812;2022-08-21T03:05:13;479.73;;;459.25;;
17197;SDS011;8715;51.010;6.812;2022-08-21T03:07:40;505.10;;;483.92;;
17197;SDS011;8715;51.010;6.812;2022-08-21T03:10:07;496.08;;;474.90;;
17197;SDS011;8715;51.010;6.812;2022-08-21T03:12:32;476.52;;;456.02;;
17197;SDS011;8715;51.010;6.812;2022-08-21T03:15:00;480.20;;;460.33;;
17197;SDS011;8715;51.010;6.812;2022-08-21T03:17:26;495.60;;;475.15;;
17197;SDS011;8715;51.010;6.812;2022-08-21T03:19:52;471.30;;;450.83;;
17197;SDS011;8715;51.010;6.812;2022-08-21T03:22:17;489.83;;;468.25;;
17197;SDS011;8715;51.010;6.812;2022-08-21T03:24:43;464.45;;;443.42;;
17197;SDS011;8715;51.010;6.812;2022-08-21T03:27:10;458.45;;;437.13;;
17197;SDS011;8715;51.010;6.812;2022-08-21T03:29:37;471.48;;;451.13;;
17197;SDS011;8715;51.010;6.812;2022-08-21T03:32:03;471.98;;;452.02;;
17197;SDS011;8715;51.010;6.812;2022-08-21T03:34:28;468.52;;;447.92;;
17197;SDS011;8715;51.010;6.812;2022-08-21T03:36:54;474.20;;;453.33;;
17197;SDS011;8715;51.010;6.812;2022-08-21T03:39:19;484.35;;;462.45;;
17197;SDS011;8715;51.010;6.812;2022-08-21T03:41:45;486.92;;;465.58;;
17197;SDS011;8715;51.010;6.812;2022-08-21T03:44:12;483.17;;;462.25;;
17197;SDS011;8715;51.010;6.812;2022-08-21T03:46:38;452.88;;;432.88;;
17197;SDS011;8715;51.010;6.812;2022-08-21T03:49:05;465.13;;;444.90;;
17197;SDS011;8715;51.010;6.812;2022-08-21T03:51:31;466.17;;;445.83;;
17197;SDS011;8715;51.010;6.812;2022-08-21T03:53:57;456.02;;;436.33;;
17197;SDS011;8715;51.010;6.812;2022-08-21T03:56:23;461.47;;;439.43;;
17197;SDS011;8715;51.010;6.812;2022-08-21T03:58:48;483.67;;;462.73;;
17197;SDS011;8715;51.010;6.812;2022-08-21T04:01:14;476.42;;;455.17;;
17197;SDS011;8715;51.010;6.812;2022-08-21T04:03:40;469.52;;;449.48;;
17197;SDS011;8715;51.010;6.812;2022-08-21T04:06:05;470.15;;;449.23;;
17197;SDS011;8715;51.010;6.812;2022-08-21T04:08:31;456.70;;;436.30;;
17197;SDS011;8715;51.010;6.812;2022-08-21T04:10:57;467.95;;;447.67;;
17197;SDS011;8715;51.010;6.812;2022-08-21T04:13:23;468.67;;;447.77;;
17197;SDS011;8715;51.010;6.812;2022-08-21T04:15:49;470.90;;;449.05;;
17197;SDS011;8715;51.010;6.812;2022-08-21T04:18:15;454.42;;;435.02;;
17197;SDS011;8715;51.010;6.812;2022-08-21T04:20:42;477.90;;;457.50;;
17197;SDS011;8715;51.010;6.812;2022-08-21T04:23:09;476.38;;;455.08;;
17197;SDS011;8715;51.010;6.812;2022-08-21T04:25:35;488.15;;;467.15;;
17197;SDS011;8715;51.010;6.812;2022-08-21T04:28:01;526.47;;;504.13;;
17197;SDS011;8715;51.010;6.812;2022-08-21T04:30:27;455.60;;;435.52;;
17197;SDS011;8715;51.010;6.812;2022-08-21T04:32:53;522.10;;;499.92;;
17197;SDS011;8715;51.010;6.812;2022-08-21T04:35:20;462.95;;;441.85;;
17197;SDS011;8715;51.010;6.812;2022-08-21T04:37:46;465.80;;;444.67;;
17197;SDS011;8715;51.010;6.812;2022-08-21T04:40:13;454.95;;;435.27;;
17197;SDS011;8715;51.010;6.812;2022-08-21T04:42:43;465.80;;;445.00;;
17197;SDS011;8715;51.010;6.812;2022-08-21T04:48:00;448.80;;;429.50;;
17197;SDS011;8715;51.010;6.812;2022-08-21T04:50:29;459.98;;;440.52;;
17197;SDS011;8715;51.010;6.812;2022-08-21T04:53:01;481.50;;;460.48;;
17197;SDS011;8715;51.010;6.812;2022-08-21T04:55:28;534.00;;;511.80;;
17197;SDS011;8715;51.010;6.812;2022-08-21T04:57:54;470.42;;;450.38;;
17197;SDS011;8715;51.010;6.812;2022-08-21T05:00:22;507.13;;;486.17;;
17197;SDS011;8715;51.010;6.812;2022-08-21T05:02:49;530.40;;;508.25;;
17197;SDS011;8715;51.010;6.812;2022-08-21T05:05:19;523.40;;;501.77;;
17197;SDS011;8715;51.010;6.812;2022-08-21T05:07:44;529.20;;;507.52;;
17197;SDS011;8715;51.010;6.812;2022-08-21T05:10:10;541.92;;;519.42;;
17197;SDS011;8715;51.010;6.812;2022-08-21T05:12:37;569.08;;;545.10;;
17197;SDS011;8715;51.010;6.812;2022-08-21T05:15:04;570.78;;;547.35;;
17197;SDS011;8715;51.010;6.812;2022-08-21T05:17:32;574.65;;;550.38;;
17197;SDS011;8715;51.010;6.812;2022-08-21T05:19:57;578.78;;;554.65;;
17197;SDS011;8715;51.010;6.812;2022-08-21T05:22:23;599.67;;;574.10;;
17197;SDS011;8715;51.010;6.812;2022-08-21T05:24:49;603.45;;;578.03;;
17197;SDS011;8715;51.010;6.812;2022-08-21T05:27:15;597.25;;;571.83;;
17197;SDS011;8715;51.010;6.812;2022-08-21T05:29:40;604.33;;;578.70;;
17197;SDS011;8715;51.010;6.812;2022-08-21T05:32:09;617.50;;;591.35;;
17197;SDS011;8715;51.010;6.812;2022-08-21T05:34:36;631.03;;;604.47;;
17197;SDS011;8715;51.010;6.812;2022-08-21T05:37:01;626.58;;;600.05;;
17197;SDS011;8715;51.010;6.812;2022-08-21T05:39:27;635.30;;;607.67;;
17197;SDS011;8715;51.010;6.812;2022-08-21T05:41:52;648.03;;;619.85;;
17197;SDS011;8715;51.010;6.812;2022-08-21T05:44:18;646.75;;;618.55;;
17197;SDS011;8715;51.010;6.812;2022-08-21T05:46:45;653.00;;;624.47;;
17197;SDS011;8715;51.010;6.812;2022-08-21T05:49:11;663.05;;;634.25;;
17197;SDS011;8715;51.010;6.812;2022-08-21T05:51:36;666.70;;;637.58;;
17197;SDS011;8715;51.010;6.812;2022-08-21T05:54:04;671.00;;;641.60;;
17197;SDS011;8715;51.010;6.812;2022-08-21T05:56:30;675.33;;;644.03;;
17197;SDS011;8715;51.010;6.812;2022-08-21T05:58:56;671.78;;;641.47;;
17197;SDS011;8715;51.010;6.812;2022-08-21T06:01:21;676.25;;;645.50;;
17197;SDS011;8715;51.010;6.812;2022-08-21T06:03:47;677.00;;;646.08;;
17197;SDS011;8715;51.010;6.812;2022-08-21T06:06:12;670.00;;;639.70;;
17197;SDS011;8715;51.010;6.812;2022-08-21T06:08:38;689.17;;;657.78;;
17197;SDS011;8715;51.010;6.812;2022-08-21T06:11:04;676.58;;;645.50;;
17197;SDS011;8715;51.010;6.812;2022-08-21T06:13:30;680.40;;;649.08;;
17197;SDS011;8715;51.010;6.812;2022-08-21T06:16:02;688.30;;;656.38;;
17197;SDS011;8715;51.010;6.812;2022-08-21T06:18:35;682.92;;;650.83;;
17197;SDS011;8715;51.010;6.812;2022-08-21T06:21:02;690.05;;;658.47;;
17197;SDS011;8715;51.010;6.812;2022-08-21T06:23:27;679.15;;;648.33;;
17197;SDS011;8715;51.010;6.812;2022-08-21T06:25:53;692.75;;;660.60;;
17197;SDS011;8715;51.010;6.812;2022-08-21T06:28:18;685.72;;;653.85;;
17197;SDS011;8715;51.010;6.812;2022-08-21T06:30:44;696.25;;;663.55;;
17197;SDS011;8715;51.010;6.812;2022-08-21T06:33:09;686.80;;;654.73;;
17197;SDS011;8715;51.010;6.812;2022-08-21T06:35:35;681.45;;;650.40;;
17197;SDS011;8715;51.010;6.812;2022-08-21T06:38:00;675.60;;;644.63;;
17197;SDS011;8715;51.010;6.812;2022-08-21T06:40:26;685.35;;;653.50;;
17197;SDS011;8715;51.010;6.812;2022-08-21T06:42:52;682.08;;;650.40;;
17197;SDS011;8715;51.010;6.812;2022-08-21T06:45:17;682.45;;;650.90;;
17197;SDS011;8715;51.010;6.812;2022-08-21T06:47:43;661.53;;;631.58;;
17197;SDS011;8715;51.010;6.812;2022-08-21T06:50:08;664.95;;;635.70;;
17197;SDS011;8715;51.010;6.812;2022-08-21T06:52:35;660.30;;;631.28;;
17197;SDS011;8715;51.010;6.812;2022-08-21T06:55:01;655.00;;;626.28;;
17197;SDS011;8715;51.010;6.812;2022-08-21T06:57:27;664.15;;;635.28;;
17197;SDS011;8715;51.010;6.812;2022-08-21T06:59:52;649.15;;;620.50;;
17197;SDS011;8715;51.010;6.812;2022-08-21T07:02:18;663.63;;;634.13;;
17197;SDS011;8715;51.010;6.812;2022-08-21T07:04:43;641.27;;;612.90;;
17197;SDS011;8715;51.010;6.812;2022-08-21T07:07:09;642.10;;;614.17;;
17197;SDS011;8715;51.010;6.812;2022-08-21T07:09:34;640.63;;;612.97;;
17197;SDS011;8715;51.010;6.812;2022-08-21T07:11:59;641.15;;;612.95;;
17197;SDS011;8715;51.010;6.812;2022-08-21T07:14:25;636.92;;;609.35;;
17197;SDS011;8715;51.010;6.812;2022-08-21T07:16:51;647.88;;;618.22;;
17197;SDS011;8715;51.010;6.812;2022-08-21T07:19:16;641.25;;;613.13;;
17197;SDS011;8715;51.010;6.812;2022-08-21T07:21:42;635.25;;;607.80;;
17197;SDS011;8715;51.010;6.812;2022-08-21T07:24:07;630.63;;;603.10;;
17197;SDS011;8715;51.010;6.812;2022-08-21T07:26:33;640.55;;;612.53;;
17197;SDS011;8715;51.010;6.812;2022-08-21T07:28:58;647.92;;;619.65;;
17197;SDS011;8715;51.010;6.812;2022-08-21T07:31:24;626.07;;;599.17;;
17197;SDS011;8715;51.010;6.812;2022-08-21T07:33:50;630.53;;;603.17;;
17197;SDS011;8715;51.010;6.812;2022-08-21T07:36:15;647.83;;;619.42;;
17197;SDS011;8715;51.010;6.812;2022-08-21T07:38:41;628.53;;;601.90;;
17197;SDS011;8715;51.010;6.812;2022-08-21T07:41:09;631.65;;;604.05;;
17197;SDS011;8715;51.010;6.812;2022-08-21T07:43:38;623.55;;;596.78;;
17197;SDS011;8715;51.010;6.812;2022-08-21T07:46:03;624.33;;;596.53;;
17197;SDS011;8715;51.010;6.812;2022-08-21T07:48:30;638.47;;;608.08;;
17197;SDS011;8715;51.010;6.812;2022-08-21T07:50:55;631.13;;;601.70;;
17197;SDS011;8715;51.010;6.812;2022-08-21T07:53:21;631.25;;;602.22;;
17197;SDS011;8715;51.010;6.812;2022-08-21T07:55:47;624.35;;;596.78;;
17197;SDS011;8715;51.010;6.812;2022-08-21T07:58:12;633.05;;;605.35;;
17197;SDS011;8715;51.010;6.812;2022-08-21T08:00:39;637.47;;;609.88;;
17197;SDS011;8715;51.010;6.812;2022-08-21T08:03:05;627.95;;;601.17;;
17197;SDS011;8715;51.010;6.812;2022-08-21T08:05:31;637.80;;;609.95;;
17197;SDS011;8715;51.010;6.812;2022-08-21T08:07:57;643.95;;;614.88;;
17197;SDS011;8715;51.010;6.812;2022-08-21T08:10:23;626.60;;;598.83;;
17197;SDS011;8715;51.010;6.812;2022-08-21T08:12:49;632.03;;;604.65;;
17197;SDS011;8715;51.010;6.812;2022-08-21T08:15:17;668.28;;;638.85;;
17197;SDS011;8715;51.010;6.812;2022-08-21T08:17:44;631.10;;;603.47;;
17197;SDS011;8715;51.010;6.812;2022-08-21T08:20:10;635.78;;;607.47;;
17197;SDS011;8715;51.010;6.812;2022-08-21T08:22:37;628.72;;;601.88;;
17197;SDS011;8715;51.010;6.812;2022-08-21T08:25:04;639.58;;;611.45;;
17197;SDS011;8715;51.010;6.812;2022-08-21T08:27:30;657.63;;;628.20;;
17197;SDS011;8715;51.010;6.812;2022-08-21T08:29:56;644.17;;;615.92;;
17197;SDS011;8715;51.010;6.812;2022-08-21T08:32:22;649.63;;;620.38;;
17197;SDS011;8715;51.010;6.812;2022-08-21T08:34:48;645.88;;;617.55;;
17197;SDS011;8715;51.010;6.812;2022-08-21T08:37:14;642.15;;;614.05;;
17197;SDS011;8715;51.010;6.812;2022-08-21T08:39:40;645.53;;;617.35;;
17197;SDS011;8715;51.010;6.812;2022-08-21T08:42:16;642.90;;;613.70;;
17197;SDS011;8715;51.010;6.812;2022-08-21T08:44:46;635.22;;;607.60;;
17197;SDS011;8715;51.010;6.812;2022-08-21T08:47:13;654.03;;;625.15;;
17197;SDS011;8715;51.010;6.812;2022-08-21T08:49:49;655.30;;;626.42;;
17197;SDS011;8715;51.010;6.812;2022-08-21T08:52:30;652.10;;;623.47;;
17197;SDS011;8715;51.010;6.812;2022-08-21T08:57:28;642.88;;;614.80;;
17197;SDS011;8715;51.010;6.812;2022-08-21T08:59:55;655.25;;;626.25;;
17197;SDS011;8715;51.010;6.812;2022-08-21T09:02:23;658.10;;;629.05;;
17197;SDS011;8715;51.010;6.812;2022-08-21T09:04:49;635.72;;;608.17;;
17197;SDS011;8715;51.010;6.812;2022-08-21T09:15:51;638.70;;;610.70;;
17197;SDS011;8715;51.010;6.812;2022-08-21T09:24:02;655.33;;;626.50;;
17197;SDS011;8715;51.010;6.812;2022-08-21T09:27:00;658.90;;;628.25;;
17197;SDS011;8715;51.010;6.812;2022-08-21T09:29:42;653.85;;;625.35;;
17197;SDS011;8715;51.010;6.812;2022-08-21T09:32:16;654.47;;;626.20;;
17197;SDS011;8715;51.010;6.812;2022-08-21T09:34:54;666.95;;;637.78;;
17197;SDS011;8715;51.010;6.812;2022-08-21T09:37:32;654.83;;;625.65;;
17197;SDS011;8715;51.010;6.812;2022-08-21T09:42:29;645.85;;;617.95;;
17197;SDS011;8715;51.010;6.812;2022-08-21T09:45:12;650.90;;;622.22;;
17197;SDS011;8715;51.010;6.812;2022-08-21T09:47:40;659.97;;;631.33;;
17197;SDS011;8715;51.010;6.812;2022-08-21T09:50:27;663.03;;;633.88;;
17197;SDS011;8715;51.010;6.812;2022-08-21T09:52:56;666.67;;;636.78;;
17197;SDS011;8715;51.010;6.812;2022-08-21T09:55:31;664.00;;;634.08;;
17197;SDS011;8715;51.010;6.812;2022-08-21T09:58:34;660.13;;;630.65;;
17197;SDS011;8715;51.010;6.812;2022-08-21T10:01:02;663.05;;;633.13;;
17197;SDS011;8715;51.010;6.812;2022-08-21T10:03:28;667.15;;;636.78;;
17197;SDS011;8715;51.010;6.812;2022-08-21T10:05:58;653.78;;;624.17;;
17197;SDS011;8715;51.010;6.812;2022-08-21T10:08:33;671.58;;;641.05;;
17197;SDS011;8715;51.010;6.812;2022-08-21T10:19:38;655.95;;;627.13;;
17197;SDS011;8715;51.010;6.812;2022-08-21T10:22:14;656.03;;;626.83;;
17197;SDS011;8715;51.010;6.812;2022-08-21T10:25:00;668.67;;;638.65;;
17197;SDS011;8715;51.010;6.812;2022-08-21T10:33:03;668.87;;;638.77;;
17197;SDS011;8715;51.010;6.812;2022-08-21T10:41:46;668.65;;;638.63;;
17197;SDS011;8715;51.010;6.812;2022-08-21T10:44:34;668.53;;;637.55;;
17197;SDS011;8715;51.010;6.812;2022-08-21T10:47:19;667.80;;;638.05;;
17197;SDS011;8715;51.010;6.812;2022-08-21T10:50:02;657.20;;;627.95;;
17197;SDS011;8715;51.010;6.812;2022-08-21T11:01:08;665.58;;;636.05;;
17197;SDS011;8715;51.010;6.812;2022-08-21T11:04:37;661.60;;;632.17;;
17197;SDS011;8715;51.010;6.812;2022-08-21T11:06:47;666.78;;;637.47;;
17197;SDS011;8715;51.010;6.812;2022-08-21T11:09:20;658.47;;;628.83;;
17197;SDS011;8715;51.010;6.812;2022-08-21T11:11:50;660.53;;;631.45;;
17197;SDS011;8715;51.010;6.812;2022-08-21T11:17:09;677.00;;;645.00;;
17197;SDS011;8715;51.010;6.812;2022-08-21T11:19:40;671.97;;;642.08;;
17197;SDS011;8715;51.010;6.812;2022-08-21T11:22:28;657.15;;;627.83;;
17197;SDS011;8715;51.010;6.812;2022-08-21T11:27:39;660.50;;;631.35;;
17197;SDS011;8715;51.010;6.812;2022-08-21T11:30:08;659.92;;;630.83;;
17197;SDS011;8715;51.010;6.812;2022-08-21T11:35:35;666.97;;;636.63;;
17197;SDS011;8715;51.010;6.812;2022-08-21T11:38:19;664.83;;;635.38;;
17197;SDS011;8715;51.010;6.812;2022-08-21T11:52:05;671.03;;;640.20;;
17197;SDS011;8715;51.010;6.812;2022-08-21T11:57:42;667.88;;;637.65;;
17197;SDS011;8715;51.010;6.812;2022-08-21T12:00:17;665.67;;;636.05;;
17197;SDS011;8715;51.010;6.812;2022-08-21T12:02:48;673.13;;;642.03;;
17197;SDS011;8715;51.010;6.812;2022-08-21T12:05:22;671.20;;;640.67;;
17197;SDS011;8715;51.010;6.812;2022-08-21T12:07:48;676.38;;;645.50;;
17197;SDS011;8715;51.010;6.812;2022-08-21T12:10:30;692.90;;;661.63;;
17197;SDS011;8715;51.010;6.812;2022-08-21T12:13:09;667.75;;;637.63;;
17197;SDS011;8715;51.010;6.812;2022-08-21T12:15:48;668.55;;;638.35;;
17197;SDS011;8715;51.010;6.812;2022-08-21T12:18:22;661.33;;;631.85;;
17197;SDS011;8715;51.010;6.812;2022-08-21T12:24:02;662.78;;;633.00;;
17197;SDS011;8715;51.010;6.812;2022-08-21T12:26:32;657.90;;;628.17;;
17197;SDS011;8715;51.010;6.812;2022-08-21T12:29:49;675.15;;;644.20;;
17197;SDS011;8715;51.010;6.812;2022-08-21T12:31:50;655.45;;;625.65;;
17197;SDS011;8715;51.010;6.812;2022-08-21T12:34:18;664.63;;;635.08;;
17197;SDS011;8715;51.010;6.812;2022-08-21T12:37:06;662.53;;;633.10;;
17197;SDS011;8715;51.010;6.812;2022-08-21T12:39:42;667.78;;;637.75;;
17197;SDS011;8715;51.010;6.812;2022-08-21T12:42:19;655.58;;;626.33;;
17197;SDS011;8715;51.010;6.812;2022-08-21T12:44:50;659.03;;;629.58;;
17197;SDS011;8715;51.010;6.812;2022-08-21T12:50:19;677.67;;;647.38;;
17197;SDS011;8715;51.010;6.812;2022-08-21T12:53:05;667.30;;;637.22;;
17197;SDS011;8715;51.010;6.812;2022-08-21T12:55:33;684.90;;;653.05;;
17197;SDS011;8715;51.010;6.812;2022-08-21T12:57:59;683.55;;;651.95;;
17197;SDS011;8715;51.010;6.812;2022-08-21T13:00:26;671.00;;;640.40;;
17197;SDS011;8715;51.010;6.812;2022-08-21T13:02:53;664.40;;;633.97;;
17197;SDS011;8715;51.010;6.812;2022-08-21T13:05:26;667.17;;;636.35;;
17197;SDS011;8715;51.010;6.812;2022-08-21T13:07:57;663.85;;;633.55;;
17197;SDS011;8715;51.010;6.812;2022-08-21T13:10:29;671.40;;;640.50;;
17197;SDS011;8715;51.010;6.812;2022-08-21T13:12:57;678.83;;;645.35;;
17197;SDS011;8715;51.010;6.812;2022-08-21T13:15:29;666.72;;;635.90;;
17197;SDS011;8715;51.010;6.812;2022-08-21T13:17:56;682.35;;;650.97;;
17197;SDS011;8715;51.010;6.812;2022-08-21T13:20:37;664.33;;;634.05;;
17197;SDS011;8715;51.010;6.812;2022-08-21T13:23:05;661.92;;;632.33;;
17197;SDS011;8715;51.010;6.812;2022-08-21T13:25:43;660.10;;;630.40;;
17197;SDS011;8715;51.010;6.812;2022-08-21T13:28:10;659.53;;;630.05;;
17197;SDS011;8715;51.010;6.812;2022-08-21T13:30:41;659.53;;;629.45;;
17197;SDS011;8715;51.010;6.812;2022-08-21T13:33:09;671.72;;;641.45;;
17197;SDS011;8715;51.010;6.812;2022-08-21T13:35:46;660.30;;;630.30;;
17197;SDS011;8715;51.010;6.812;2022-08-21T13:38:13;658.55;;;629.17;;
17197;SDS011;8715;51.010;6.812;2022-08-21T13:40:44;659.17;;;629.47;;
17197;SDS011;8715;51.010;6.812;2022-08-21T13:43:16;654.25;;;625.13;;
17197;SDS011;8715;51.010;6.812;2022-08-21T13:45:44;675.72;;;645.00;;
17197;SDS011;8715;51.010;6.812;2022-08-21T13:48:13;673.13;;;643.00;;
17197;SDS011;8715;51.010;6.812;2022-08-21T13:50:39;674.58;;;644.13;;
17197;SDS011;8715;51.010;6.812;2022-08-21T13:53:06;678.90;;;647.45;;
17197;SDS011;8715;51.010;6.812;2022-08-21T13:55:41;671.97;;;641.28;;
17197;SDS011;8715;51.010;6.812;2022-08-21T13:58:08;677.60;;;646.80;;
17197;SDS011;8715;51.010;6.812;2022-08-21T14:00:46;670.63;;;639.63;;
17197;SDS011;8715;51.010;6.812;2022-08-21T14:03:27;663.10;;;633.33;;
17197;SDS011;8715;51.010;6.812;2022-08-21T14:05:59;665.65;;;635.70;;
17197;SDS011;8715;51.010;6.812;2022-08-21T14:08:30;666.17;;;635.97;;
17197;SDS011;8715;51.010;6.812;2022-08-21T14:10:58;663.28;;;632.97;;
17197;SDS011;8715;51.010;6.812;2022-08-21T14:13:33;672.88;;;642.25;;
17197;SDS011;8715;51.010;6.812;2022-08-21T14:16:10;665.92;;;635.88;;
17197;SDS011;8715;51.010;6.812;2022-08-21T14:18:43;661.38;;;631.95;;
17197;SDS011;8715;51.010;6.812;2022-08-21T14:26:52;667.60;;;637.40;;
17197;SDS011;8715;51.010;6.812;2022-08-21T14:29:22;667.80;;;637.35;;
17197;SDS011;8715;51.010;6.812;2022-08-21T14:31:55;670.20;;;640.25;;
17197;SDS011;8715;51.010;6.812;2022-08-21T14:34:24;663.75;;;634.35;;
17197;SDS011;8715;51.010;6.812;2022-08-21T14:36:50;666.88;;;636.97;;
17197;SDS011;8715;51.010;6.812;2022-08-21T14:39:16;682.30;;;651.88;;
17197;SDS011;8715;51.010;6.812;2022-08-21T14:41:42;682.88;;;651.63;;
17197;SDS011;8715;51.010;6.812;2022-08-21T14:44:07;671.55;;;641.13;;
17197;SDS011;8715;51.010;6.812;2022-08-21T14:46:33;684.13;;;652.75;;
17197;SDS011;8715;51.010;6.812;2022-08-21T14:49:01;669.53;;;638.55;;
17197;SDS011;8715;51.010;6.812;2022-08-21T14:51:27;668.55;;;638.13;;
17197;SDS011;8715;51.010;6.812;2022-08-21T14:53:53;670.05;;;639.67;;
17197;SDS011;8715;51.010;6.812;2022-08-21T14:56:18;679.00;;;647.83;;
17197;SDS011;8715;51.010;6.812;2022-08-21T14:58:45;675.75;;;645.25;;
17197;SDS011;8715;51.010;6.812;2022-08-21T15:01:13;689.03;;;657.03;;
17197;SDS011;8715;51.010;6.812;2022-08-21T15:03:40;668.17;;;637.40;;
17197;SDS011;8715;51.010;6.812;2022-08-21T15:06:05;677.22;;;646.03;;
17197;SDS011;8715;51.010;6.812;2022-08-21T15:08:31;667.60;;;637.40;;
17197;SDS011;8715;51.010;6.812;2022-08-21T15:10:57;683.08;;;651.25;;
17197;SDS011;8715;51.010;6.812;2022-08-21T15:13:24;666.63;;;636.30;;
17197;SDS011;8715;51.010;6.812;2022-08-21T15:15:50;670.13;;;640.42;;
17197;SDS011;8715;51.010;6.812;2022-08-21T15:18:18;665.38;;;635.85;;
17197;SDS011;8715;51.010;6.812;2022-08-21T15:20:46;669.63;;;639.88;;
17197;SDS011;8715;51.010;6.812;2022-08-21T15:23:12;662.25;;;633.08;;
17197;SDS011;8715;51.010;6.812;2022-08-21T15:25:39;657.70;;;628.55;;
17197;SDS011;8715;51.010;6.812;2022-08-21T15:28:06;667.92;;;638.03;;
17197;SDS011;8715;51.010;6.812;2022-08-21T15:30:31;665.38;;;635.80;;
17197;SDS011;8715;51.010;6.812;2022-08-21T15:32:57;661.40;;;632.05;;
17197;SDS011;8715;51.010;6.812;2022-08-21T15:35:22;670.13;;;640.30;;
17197;SDS011;8715;51.010;6.812;2022-08-21T15:37:48;665.15;;;635.70;;
17197;SDS011;8715;51.010;6.812;2022-08-21T15:40:14;654.45;;;625.42;;
17197;SDS011;8715;51.010;6.812;2022-08-21T15:42:40;664.40;;;634.70;;
17197;SDS011;8715;51.010;6.812;2022-08-21T15:45:07;653.90;;;624.63;;